This is the latest recevied weather packets stored in our database for station/object W5HKR. If no packets are shown the sender has not sent any weather packets the latest 1 day(s).
| Time | Temp. | Humidity | Pressure | Rain* | Wind** | Luminosity | Snow |
|---|---|---|---|---|---|---|---|
| 1778004806 | 27.22° C | 74% | 980.4 hPa | 0 mm | 5.81 m/s, 269° | - | - |
| 1778004597 | 27.22° C | 74% | 980.4 hPa | 0 mm | 6.71 m/s, 269° | - | - |
| 1778004506 | 18.33° C | 91% | 990.6 hPa | 0 mm | 5.81 m/s, 269° | - | - |
| 1778003910 | 26.67° C | 76% | 980.8 hPa | 0 mm | 6.26 m/s, 267° | - | - |
| 1778003607 | 26.67° C | 75% | 980.4 hPa | 0 mm | 5.81 m/s, 269° | - | - |
| 1778003518 | 26.67° C | 76% | 980.4 hPa | 0 mm | 6.26 m/s, 268° | - | - |
| 1778003306 | 18.33° C | 91% | 990.6 hPa | 0 mm | 6.26 m/s, 271° | - | - |
| 1778003005 | 18.33° C | 91% | 990.6 hPa | 0 mm | 5.81 m/s, 267° | - | - |
| 1778002705 | 18.33° C | 91% | 990.6 hPa | 0 mm | 6.26 m/s, 267° | - | - |
| 1778002437 | 26.67° C | 77% | 980.7 hPa | 0 mm | 5.81 m/s, 268° | - | - |
| 1778002406 | 26.67° C | 76% | 981 hPa | 0 mm | 5.81 m/s, 267° | - | - |
| 1778002106 | 18.33° C | 91% | 990.6 hPa | 0 mm | 6.26 m/s, 265° | - | - |
| 1778001805 | 26.11° C | 78% | 980.4 hPa | 0 mm | 5.36 m/s, 261° | - | - |
| 1778001510 | 18.33° C | 91% | 990.6 hPa | 0 mm | 6.26 m/s, 266° | - | - |
| 1778001356 | 26.11° C | 78% | 980.8 hPa | 0 mm | 5.81 m/s, 266° | - | - |
| 1778001205 | 18.33° C | 91% | 990.6 hPa | 0 mm | 6.26 m/s, 266° | - | - |
| 1778000906 | 18.33° C | 91% | 990.6 hPa | 0 mm | 6.26 m/s, 268° | - | - |
| 1778000607 | 25.56° C | 80% | 981.1 hPa | 0 mm | 6.26 m/s, 264° | - | - |
| 1778000277 | 18.33° C | 91% | 990.6 hPa | 0 mm | 5.81 m/s, 267° | - | - |
| 1778000007 | 18.33° C | 91% | 990.6 hPa | 0 mm | 5.81 m/s, 267° | - | - |
| 1777999707 | 18.33° C | 91% | 990.6 hPa | 0 mm | 5.81 m/s, 264° | - | - |
| 1777999407 | 18.33° C | 91% | 990.6 hPa | 0 mm | 5.36 m/s, 268° | - | - |
| 1777999197 | 18.33° C | 91% | 990.6 hPa | 0 mm | 5.81 m/s, 263° | - | - |
| 1777998805 | 24.44° C | 84% | 980.7 hPa | 0 mm | 5.81 m/s, 269° | - | - |
| 1777998506 | 18.33° C | 91% | 990.6 hPa | 0 mm | 5.36 m/s, 268° | - | - |
* Rain latest hour (hover to see other rain measurements)
** Current wind speed in m/s (hover to see current wind gust speed)